Time;durP1;ratioP1;P1;durP2;ratioP2;P2;SDS_P1;SDS_P2;PMS_P1;PMS_P2;Temp;Humidity;BMP_temperature;BMP_pressure;BME280_temperature;BME280_humidity;BME280_pressure;Samples;Min_cycle;Max_cycle;Signal;HPM_P1;HPM_P2
2023/04/14 00:00:12;;;;;;;0.77;0.50;;;11.60;99.90;;;;;;4989200;28;20211;-89
2023/04/14 00:02:44;;;;;;;1.10;0.60;;;11.70;99.90;;;;;;4994253;28;20378;-88
2023/04/14 00:05:16;;;;;;;0.50;0.40;;;11.40;99.90;;;;;;4994349;28;20725;-88
2023/04/14 00:07:47;;;;;;;0.80;0.60;;;10.80;99.90;;;;;;4993830;28;20221;-89
2023/04/14 00:10:21;;;;;;;1.17;0.50;;;10.60;99.90;;;;;;4995640;28;20556;-88
2023/04/14 00:12:54;;;;;;;1.17;0.73;;;10.40;99.90;;;;;;4999016;28;20252;-90
2023/04/14 00:15:26;;;;;;;0.90;0.60;;;10.30;99.90;;;;;;4993516;28;20245;-90
2023/04/14 00:17:58;;;;;;;1.87;0.50;;;10.20;99.90;;;;;;4993899;28;20286;-91
2023/04/14 00:20:29;;;;;;;1.13;0.73;;;10.10;99.90;;;;;;4994586;28;20213;-90
2023/04/14 00:23:01;;;;;;;1.30;0.67;;;10.10;99.90;;;;;;5003867;28;20210;-90
2023/04/14 00:25:34;;;;;;;1.43;0.70;;;10.00;99.90;;;;;;4985100;28;20202;-90
2023/04/14 00:28:06;;;;;;;3.23;0.60;;;9.90;99.90;;;;;;4989171;28;20545;-91
2023/04/14 00:30:37;;;;;;;1.37;0.67;;;9.70;99.90;;;;;;4975686;28;20222;-91
2023/04/14 00:33:08;;;;;;;1.63;0.90;;;9.50;99.90;;;;;;4991477;28;20210;-91
2023/04/14 00:35:40;;;;;;;36.73;3.10;;;9.50;99.90;;;;;;4988812;28;20594;-89
2023/04/14 00:38:11;;;;;;;16.50;1.57;;;9.60;99.90;;;;;;4976613;28;20291;-89
2023/04/14 00:40:43;;;;;;;2.20;0.70;;;9.80;99.90;;;;;;4976045;28;20294;-89
2023/04/14 00:43:18;;;;;;;2.13;0.57;;;9.90;99.90;;;;;;4994625;28;20206;-89
2023/04/14 00:45:50;;;;;;;1.43;0.70;;;9.80;99.90;;;;;;5001834;28;20205;-90
2023/04/14 00:48:21;;;;;;;1.93;0.70;;;9.90;99.90;;;;;;5016584;28;20261;-87
2023/04/14 00:50:52;;;;;;;1.17;0.60;;;9.90;99.90;;;;;;5025275;28;20344;-88
2023/04/14 00:53:23;;;;;;;3.70;0.70;;;10.00;99.90;;;;;;5023986;28;20261;-87
2023/04/14 00:55:56;;;;;;;3.73;0.63;;;9.80;99.90;;;;;;5008428;28;20245;-88
2023/04/14 00:58:27;;;;;;;1.43;0.60;;;9.70;99.90;;;;;;4995909;28;20211;-89
2023/04/14 01:00:59;;;;;;;2.20;0.80;;;9.80;99.90;;;;;;4981025;28;20203;-89
2023/04/14 01:03:30;;;;;;;1.27;0.70;;;9.90;99.90;;;;;;4993935;28;20268;-88
2023/04/14 01:06:01;;;;;;;4.50;0.60;;;9.90;99.90;;;;;;4995428;28;20206;-90
2023/04/14 01:08:32;;;;;;;2.27;0.90;;;9.60;99.90;;;;;;4994363;28;20261;-88
2023/04/14 01:11:15;;;;;;;1.17;0.60;;;9.60;99.90;;;;;;4981122;28;20206;-88
2023/04/14 01:13:56;;;;;;;1.13;0.60;;;9.60;99.90;;;;;;4986479;28;20687;-88
2023/04/14 01:16:31;;;;;;;3.43;0.70;;;9.50;99.90;;;;;;4977861;28;20235;-88
2023/04/14 01:19:17;;;;;;;2.53;0.60;;;9.40;99.90;;;;;;4992862;28;20285;-89
2023/04/14 01:21:53;;;;;;;1.90;0.83;;;9.40;99.90;;;;;;4984515;28;20261;-90
2023/04/14 01:25:08;;;;;;;3.00;1.17;;;9.40;99.90;;;;;;4996524;28;20245;-90
2023/04/14 01:27:53;;;;;;;1.23;0.70;;;9.30;99.90;;;;;;4993016;28;20210;-88
2023/04/14 01:30:43;;;;;;;5.40;1.00;;;9.20;99.90;;;;;;4987814;28;20214;-90
2023/04/14 01:33:19;;;;;;;0.80;0.60;;;9.10;99.90;;;;;;4998920;28;20611;-92
2023/04/14 01:35:55;;;;;;;1.63;0.40;;;9.30;99.90;;;;;;4998260;28;20233;-91
2023/04/14 01:38:28;;;;;;;1.93;0.87;;;9.40;99.90;;;;;;4996464;28;20220;-90
2023/04/14 01:41:04;;;;;;;0.57;0.47;;;9.40;99.90;;;;;;4994639;28;20202;-90
2023/04/14 01:43:38;;;;;;;2.90;0.60;;;9.40;99.90;;;;;;4998352;28;20604;-88
2023/04/14 01:46:14;;;;;;;0.60;0.50;;;9.20;99.90;;;;;;4992893;28;20289;-88
2023/04/14 01:48:49;;;;;;;1.77;0.63;;;9.20;99.90;;;;;;4993716;28;20212;-87
2023/04/14 01:51:22;;;;;;;0.73;0.50;;;9.20;99.90;;;;;;4997660;28;20276;-88
2023/04/14 01:53:55;;;;;;;1.63;0.70;;;9.20;99.90;;;;;;4996271;28;20229;-88
2023/04/14 01:56:28;;;;;;;0.83;0.53;;;9.10;99.90;;;;;;4979747;28;20266;-87
2023/04/14 01:59:01;;;;;;;1.23;0.70;;;9.10;99.90;;;;;;4982172;28;20265;-84
2023/04/14 02:01:34;;;;;;;1.37;0.40;;;9.10;99.90;;;;;;4978686;28;20299;-87
2023/04/14 02:06:43;;;;;;;1.83;0.70;;;8.90;99.90;;;;;;5292518;23;20240;-88
2023/04/14 02:09:16;;;;;;;0.60;0.60;;;8.80;99.90;;;;;;5016746;28;20209;-88
2023/04/14 02:11:50;;;;;;;0.97;0.70;;;8.80;99.90;;;;;;5012894;28;20205;-89
2023/04/14 02:14:22;;;;;;;1.90;0.67;;;8.80;99.90;;;;;;5015238;28;20206;-90
2023/04/14 02:16:56;;;;;;;0.50;0.50;;;8.70;99.90;;;;;;5013239;28;20275;-88
2023/04/14 02:19:27;;;;;;;1.53;0.60;;;8.70;99.90;;;;;;5002290;28;20217;-88
2023/04/14 02:22:01;;;;;;;2.03;0.70;;;8.60;99.90;;;;;;5004814;28;20213;-89
2023/04/14 02:24:33;;;;;;;1.03;0.67;;;8.50;99.90;;;;;;5011397;28;20209;-88
2023/04/14 02:27:12;;;;;;;2.43;0.90;;;8.40;99.90;;;;;;5008276;28;20209;-89
2023/04/14 02:29:49;;;;;;;1.10;0.57;;;8.40;99.90;;;;;;5007383;28;20206;-89
2023/04/14 02:32:25;;;;;;;1.07;0.60;;;8.40;99.90;;;;;;5011223;28;20209;-89
2023/04/14 02:35:02;;;;;;;1.40;0.60;;;8.30;99.90;;;;;;5009776;28;20293;-90
2023/04/14 02:37:42;;;;;;;1.60;0.70;;;8.30;99.90;;;;;;5023403;28;20201;-88
2023/04/14 02:40:16;;;;;;;1.70;0.87;;;8.30;99.90;;;;;;5031358;28;20189;-88
2023/04/14 02:42:51;;;;;;;1.17;0.80;;;8.20;99.90;;;;;;5031009;28;20181;-89
2023/04/14 02:45:30;;;;;;;2.13;0.90;;;8.10;99.90;;;;;;5029487;28;21686;-90
2023/04/14 02:48:08;;;;;;;2.43;0.80;;;8.10;99.90;;;;;;5026990;28;20206;-89
2023/04/14 02:50:44;;;;;;;5.10;0.63;;;8.10;99.90;;;;;;5016225;28;20206;-89
2023/04/14 02:53:21;;;;;;;1.20;0.83;;;8.10;99.90;;;;;;5009405;28;20217;-89
2023/04/14 02:55:53;;;;;;;2.10;0.80;;;8.10;99.90;;;;;;5010390;28;20229;-88
2023/04/14 02:58:25;;;;;;;0.70;0.60;;;8.00;99.90;;;;;;5017755;28;20333;-89
2023/04/14 03:00:57;;;;;;;0.70;0.60;;;7.80;99.90;;;;;;5011772;28;20622;-89
2023/04/14 03:03:30;;;;;;;0.93;0.63;;;7.90;99.90;;;;;;5005243;28;20255;-88
2023/04/14 03:06:01;;;;;;;2.03;0.70;;;7.80;99.90;;;;;;5015153;28;20662;-89
2023/04/14 03:08:36;;;;;;;0.87;0.70;;;7.70;99.90;;;;;;5009787;28;20218;-89
2023/04/14 03:11:09;;;;;;;1.10;0.80;;;7.60;99.90;;;;;;5002714;28;20280;-90
2023/04/14 03:13:43;;;;;;;2.07;1.30;;;7.50;99.90;;;;;;5012697;28;20292;-90
2023/04/14 03:16:15;;;;;;;1.17;0.90;;;7.50;99.90;;;;;;5012883;28;20309;-89
2023/04/14 03:18:48;;;;;;;1.53;0.90;;;7.40;99.90;;;;;;5012958;28;20620;-89
2023/04/14 03:21:20;;;;;;;1.63;1.10;;;7.40;99.90;;;;;;4999029;28;20265;-91
2023/04/14 03:23:55;;;;;;;1.80;0.80;;;7.30;99.90;;;;;;5005614;28;20209;-89
2023/04/14 03:26:27;;;;;;;1.10;0.77;;;7.30;99.90;;;;;;4994902;28;20232;-89
2023/04/14 03:28:59;;;;;;;3.47;0.93;;;7.20;99.90;;;;;;5010506;28;21867;-90
2023/04/14 03:31:34;;;;;;;1.53;1.00;;;7.20;99.90;;;;;;5014022;28;20209;-89
2023/04/14 03:34:07;;;;;;;2.20;1.00;;;7.20;99.90;;;;;;5014637;28;20269;-90
2023/04/14 03:36:42;;;;;;;1.23;0.90;;;7.10;99.90;;;;;;5007041;28;20252;-88
2023/04/14 03:39:16;;;;;;;1.93;1.20;;;7.00;99.90;;;;;;5008793;28;20210;-88
2023/04/14 03:41:50;;;;;;;2.83;0.93;;;6.90;99.90;;;;;;5014916;28;20638;-89
2023/04/14 03:44:21;;;;;;;1.07;0.80;;;6.90;99.90;;;;;;4997464;28;20210;-89
2023/04/14 03:46:53;;;;;;;1.57;1.10;;;6.80;99.90;;;;;;5008732;28;20212;-88
2023/04/14 03:49:26;;;;;;;3.33;1.10;;;6.90;99.90;;;;;;5011204;28;20210;-89
2023/04/14 03:52:04;;;;;;;2.20;1.57;;;6.90;99.90;;;;;;5014644;28;20273;-88
2023/04/14 03:54:41;;;;;;;3.73;2.00;;;6.90;99.90;;;;;;5015628;28;20205;-88
2023/04/14 03:57:31;;;;;;;6.50;3.83;;;6.80;99.90;;;;;;5012606;28;20209;-96
2023/04/14 04:00:04;;;;;;;4.60;2.83;;;6.70;99.90;;;;;;5012607;28;20210;-89
2023/04/14 04:02:37;;;;;;;3.17;1.73;;;6.60;99.90;;;;;;5009468;28;20213;-88
2023/04/14 04:05:10;;;;;;;2.50;2.27;;;6.50;99.90;;;;;;5000092;28;20213;-88
2023/04/14 04:07:43;;;;;;;2.43;1.63;;;6.40;99.90;;;;;;4996652;28;20215;-88
2023/04/14 04:10:19;;;;;;;4.10;1.40;;;6.30;99.90;;;;;;5012505;28;20214;-89
2023/04/14 04:12:51;;;;;;;1.37;1.00;;;6.30;99.90;;;;;;5015004;28;20583;-89
2023/04/14 04:15:23;;;;;;;2.57;1.17;;;6.20;99.90;;;;;;5019616;28;20214;-87
2023/04/14 04:17:57;;;;;;;2.63;0.87;;;6.20;99.90;;;;;;5024711;28;20313;-87
2023/04/14 04:20:30;;;;;;;1.87;1.20;;;6.30;99.90;;;;;;5017629;28;20222;-88
2023/04/14 04:23:05;;;;;;;1.33;1.00;;;6.30;99.90;;;;;;5004100;28;20207;-89
2023/04/14 04:25:42;;;;;;;1.70;1.20;;;6.30;99.90;;;;;;4999493;28;20202;-88
2023/04/14 04:28:13;;;;;;;1.00;0.90;;;6.40;99.90;;;;;;4997156;28;20275;-87
2023/04/14 04:30:47;;;;;;;1.73;1.20;;;6.40;99.90;;;;;;5015588;28;20197;-88
2023/04/14 04:33:19;;;;;;;2.63;0.90;;;6.50;99.90;;;;;;5032005;28;20206;-88
2023/04/14 04:35:51;;;;;;;2.00;1.13;;;6.50;99.90;;;;;;5017710;28;20205;-88
2023/04/14 04:38:22;;;;;;;1.60;1.20;;;6.60;99.90;;;;;;5008108;28;20587;-88
2023/04/14 04:40:55;;;;;;;2.43;1.10;;;6.60;99.90;;;;;;5008479;28;20202;-88
2023/04/14 04:43:27;;;;;;;2.80;1.10;;;6.60;99.90;;;;;;4994486;28;20214;-89
2023/04/14 04:46:16;;;;;;;1.40;1.20;;;6.60;99.90;;;;;;5001315;28;20293;-88
2023/04/14 04:48:47;;;;;;;1.40;1.10;;;6.70;99.90;;;;;;4998555;28;20241;-89
2023/04/14 04:51:19;;;;;;;1.80;1.30;;;6.70;99.90;;;;;;5014231;28;20210;-89
2023/04/14 04:53:50;;;;;;;2.17;1.00;;;6.70;99.90;;;;;;5006426;28;20210;-89
2023/04/14 04:56:27;;;;;;;3.37;1.00;;;6.80;99.90;;;;;;4994349;28;20206;-89
2023/04/14 04:58:59;;;;;;;2.07;0.97;;;6.90;99.90;;;;;;4993661;28;20210;-89
2023/04/14 05:01:30;;;;;;;2.63;1.27;;;6.90;99.90;;;;;;5005828;28;20286;-88
2023/04/14 05:04:02;;;;;;;2.60;1.10;;;6.90;99.90;;;;;;5011512;28;20233;-88
2023/04/14 05:06:38;;;;;;;3.70;1.20;;;6.90;99.90;;;;;;5016671;28;20225;-88
2023/04/14 05:09:09;;;;;;;1.50;0.93;;;6.90;99.90;;;;;;5016844;28;20240;-89
2023/04/14 05:11:43;;;;;;;1.53;0.90;;;6.90;99.90;;;;;;5010508;28;20288;-88
2023/04/14 05:14:15;;;;;;;1.53;1.00;;;6.90;99.90;;;;;;4998291;28;20616;-89
2023/04/14 05:16:46;;;;;;;1.20;1.10;;;6.90;99.90;;;;;;5017621;28;20255;-89
2023/04/14 05:19:18;;;;;;;1.50;1.27;;;6.80;99.90;;;;;;5016808;28;20279;-88
2023/04/14 05:21:49;;;;;;;1.20;1.00;;;6.90;99.90;;;;;;5017858;28;20206;-89
2023/04/14 05:24:21;;;;;;;1.10;1.00;;;6.90;99.90;;;;;;5029084;28;20272;-89
2023/04/14 05:26:54;;;;;;;1.40;0.80;;;6.80;99.90;;;;;;5013895;28;20580;-88
2023/04/14 05:29:43;;;;;;;1.00;0.90;;;6.80;99.90;;;;;;5016410;28;20237;-88
2023/04/14 05:32:15;;;;;;;1.17;0.70;;;6.90;99.90;;;;;;5017207;28;20287;-88
2023/04/14 05:34:46;;;;;;;1.20;1.00;;;6.80;99.90;;;;;;5017194;28;20205;-89
2023/04/14 05:37:18;;;;;;;2.30;0.83;;;6.80;99.90;;;;;;5000735;28;20237;-89
2023/04/14 05:39:49;;;;;;;1.33;0.80;;;6.70;99.90;;;;;;4997651;28;20202;-88
2023/04/14 05:42:22;;;;;;;1.27;1.10;;;6.70;99.90;;;;;;4998196;28;20202;-89
2023/04/14 05:44:53;;;;;;;1.47;1.00;;;6.70;99.90;;;;;;5012660;28;20244;-89
2023/04/14 05:47:25;;;;;;;1.40;1.07;;;6.70;99.90;;;;;;5016243;28;20234;-88
2023/04/14 05:49:57;;;;;;;1.33;0.90;;;6.60;99.90;;;;;;5017472;28;20288;-88
2023/04/14 05:52:29;;;;;;;0.80;0.80;;;6.60;99.90;;;;;;5017106;28;20220;-89
2023/04/14 05:55:00;;;;;;;1.37;0.90;;;6.60;99.90;;;;;;5010891;28;20205;-88
2023/04/14 05:57:32;;;;;;;1.37;0.90;;;6.50;99.90;;;;;;5016173;28;20222;-89
2023/04/14 06:00:05;;;;;;;0.90;0.90;;;6.40;99.90;;;;;;5016961;28;20198;-89
2023/04/14 06:02:36;;;;;;;0.90;0.73;;;6.40;99.90;;;;;;5011171;28;20237;-89
2023/04/14 06:05:08;;;;;;;0.90;0.80;;;6.40;99.90;;;;;;4998806;28;20292;-88
2023/04/14 06:07:41;;;;;;;2.30;0.90;;;6.40;99.90;;;;;;4996405;28;20242;-89
2023/04/14 06:10:13;;;;;;;2.33;1.30;;;6.40;99.90;;;;;;5004114;28;20809;-88
2023/04/14 06:12:47;;;;;;;0.93;0.70;;;6.40;99.90;;;;;;5017238;28;20212;-89
2023/04/14 06:15:18;;;;;;;2.00;0.97;;;6.50;99.90;;;;;;5017146;28;20260;-89
2023/04/14 06:17:50;;;;;;;1.63;0.77;;;6.50;99.90;;;;;;5014358;28;20283;-89
2023/04/14 06:20:22;;;;;;;1.30;0.80;;;6.50;99.90;;;;;;5025063;28;20221;-89
2023/04/14 06:22:53;;;;;;;1.77;0.90;;;6.40;99.90;;;;;;5029775;28;20271;-87
2023/04/14 06:25:25;;;;;;;1.57;1.00;;;6.40;99.90;;;;;;4676597;28;9999859;-88
2023/04/14 06:27:58;;;;;;;2.37;1.00;;;6.40;99.90;;;;;;4996481;28;20938;-90
2023/04/14 06:30:31;;;;;;;1.47;0.90;;;6.40;99.90;;;;;;5014010;28;20205;-89
2023/04/14 06:33:03;;;;;;;1.90;0.90;;;6.40;99.90;;;;;;5016112;28;20213;-89
2023/04/14 06:35:34;;;;;;;0.90;0.70;;;6.40;99.90;;;;;;5015570;28;20214;-88
2023/04/14 06:38:05;;;;;;;2.43;0.80;;;6.30;99.90;;;;;;5013910;28;20252;-89
2023/04/14 06:40:37;;;;;;;1.23;0.90;;;6.30;99.90;;;;;;5016452;28;20726;-89
2023/04/14 06:43:11;;;;;;;1.57;1.13;;;6.20;99.90;;;;;;5015294;28;20202;-89
2023/04/14 06:45:42;;;;;;;0.70;0.70;;;6.20;99.90;;;;;;5014159;28;20221;-88
2023/04/14 06:48:14;;;;;;;1.37;0.70;;;6.10;99.90;;;;;;5015284;28;20269;-89
2023/04/14 06:50:52;;;;;;;1.37;0.73;;;6.00;99.90;;;;;;4997548;28;20233;-88
2023/04/14 06:53:24;;;;;;;1.07;1.00;;;6.00;99.90;;;;;;5012797;28;20206;-89
2023/04/14 06:55:59;;;;;;;1.63;0.90;;;5.90;99.90;;;;;;5005669;28;20218;-89
2023/04/14 06:58:32;;;;;;;1.00;0.90;;;5.90;99.90;;;;;;4996017;28;20703;-88
2023/04/14 07:01:04;;;;;;;1.10;1.00;;;5.80;99.90;;;;;;5012922;28;20240;-88
2023/04/14 07:03:36;;;;;;;2.17;0.93;;;5.80;99.90;;;;;;4997022;28;20289;-89
2023/04/14 07:06:10;;;;;;;1.10;1.00;;;5.70;99.90;;;;;;5002159;28;20216;-89
2023/04/14 07:08:41;;;;;;;1.10;1.00;;;5.60;99.90;;;;;;5015373;28;20300;-86
2023/04/14 07:11:13;;;;;;;1.63;1.07;;;5.60;99.90;;;;;;4996958;28;20204;-88
2023/04/14 07:13:47;;;;;;;2.63;0.93;;;5.50;99.90;;;;;;5002782;28;20205;-88
2023/04/14 07:16:19;;;;;;;2.67;1.10;;;5.50;99.90;;;;;;5015908;28;20268;-90
2023/04/14 07:18:50;;;;;;;1.07;0.97;;;5.50;99.90;;;;;;5013648;28;20347;-89
2023/04/14 07:21:22;;;;;;;1.30;1.10;;;5.50;99.90;;;;;;5015046;28;20928;-88
2023/04/14 07:23:53;;;;;;;0.87;0.80;;;5.50;99.90;;;;;;4999318;28;20201;-88
2023/04/14 07:26:24;;;;;;;1.30;0.90;;;5.50;99.90;;;;;;5015212;28;20574;-87
2023/04/14 07:28:57;;;;;;;1.67;1.00;;;5.60;99.90;;;;;;4999478;28;20214;-89
2023/04/14 07:31:30;;;;;;;1.50;1.10;;;5.60;99.90;;;;;;5010963;28;20240;-88
2023/04/14 07:34:01;;;;;;;2.60;1.33;;;5.60;99.90;;;;;;5012716;28;20298;-88
2023/04/14 07:36:33;;;;;;;2.13;1.20;;;5.70;99.90;;;;;;5015003;28;20248;-89
2023/04/14 07:39:04;;;;;;;2.00;1.10;;;5.70;99.90;;;;;;4993326;28;20234;-88
2023/04/14 07:41:37;;;;;;;1.20;1.10;;;5.70;99.90;;;;;;4995668;28;20249;-90
2023/04/14 07:44:11;;;;;;;1.43;1.07;;;5.70;99.90;;;;;;5003178;28;20237;-88
2023/04/14 07:46:42;;;;;;;1.20;0.83;;;5.70;99.90;;;;;;5014953;28;20201;-88
2023/04/14 07:49:14;;;;;;;1.83;1.27;;;5.80;99.90;;;;;;5028976;28;20217;-89
2023/04/14 07:51:46;;;;;;;1.03;0.93;;;5.80;99.90;;;;;;5026120;28;20666;-88
2023/04/14 07:54:18;;;;;;;2.50;1.30;;;5.80;99.90;;;;;;5004126;28;20209;-89
2023/04/14 07:56:49;;;;;;;2.00;1.07;;;5.90;99.90;;;;;;5007592;28;20210;-89
2023/04/14 07:59:25;;;;;;;1.00;0.90;;;5.90;99.90;;;;;;5013611;28;20279;-89
2023/04/14 08:01:57;;;;;;;2.70;1.00;;;6.00;99.90;;;;;;5013801;28;20559;-88
2023/04/14 08:04:28;;;;;;;0.97;0.93;;;6.00;99.90;;;;;;5011413;28;20288;-89
2023/04/14 08:07:00;;;;;;;1.90;0.90;;;6.00;99.90;;;;;;5013518;28;20219;-88
2023/04/14 08:09:31;;;;;;;1.77;1.10;;;6.00;99.90;;;;;;5014795;28;20212;-88
2023/04/14 08:12:03;;;;;;;1.33;1.20;;;6.00;99.90;;;;;;5032646;28;20193;-88
2023/04/14 08:14:37;;;;;;;1.93;1.10;;;6.10;99.90;;;;;;5036931;28;20201;-89
2023/04/14 08:17:11;;;;;;;2.43;1.07;;;6.10;99.90;;;;;;5028680;28;20220;-89
2023/04/14 08:19:43;;;;;;;2.93;0.87;;;6.10;99.90;;;;;;5026181;28;20237;-88
2023/04/14 08:22:16;;;;;;;1.23;1.00;;;6.10;99.90;;;;;;5022011;28;20296;-89
2023/04/14 08:24:47;;;;;;;0.67;0.67;;;6.10;99.90;;;;;;5013171;28;20244;-89
2023/04/14 08:27:18;;;;;;;2.57;1.07;;;6.10;99.90;;;;;;5013177;28;20686;-88
2023/04/14 08:29:52;;;;;;;1.10;0.90;;;6.20;99.90;;;;;;5013917;28;20213;-88
2023/04/14 08:32:25;;;;;;;1.83;0.80;;;6.20;99.90;;;;;;5005895;28;20243;-88
2023/04/14 08:34:58;;;;;;;2.13;1.07;;;6.20;99.90;;;;;;5014086;28;20216;-88
2023/04/14 08:37:49;;;;;;;1.27;0.93;;;6.20;99.90;;;;;;5013645;28;20295;-88
2023/04/14 08:40:24;;;;;;;1.27;0.87;;;6.20;99.90;;;;;;5009034;28;20237;-88
2023/04/14 08:42:55;;;;;;;3.17;0.90;;;6.20;99.90;;;;;;5008177;28;20279;-87
2023/04/14 08:45:31;;;;;;;1.80;0.70;;;6.20;99.90;;;;;;5018410;28;20210;-88
2023/04/14 08:48:04;;;;;;;1.57;1.00;;;6.20;99.90;;;;;;5008277;28;20205;-87
2023/04/14 08:50:38;;;;;;;1.00;0.90;;;6.10;99.90;;;;;;5014096;28;20220;-88
2023/04/14 08:53:11;;;;;;;0.80;0.80;;;6.10;99.90;;;;;;4996985;28;20209;-88
2023/04/14 08:55:43;;;;;;;0.97;0.80;;;6.10;99.90;;;;;;5013732;28;20212;-88
2023/04/14 08:58:15;;;;;;;0.80;0.80;;;6.00;99.90;;;;;;5016112;28;20311;-89
2023/04/14 09:00:49;;;;;;;0.73;0.73;;;6.00;99.90;;;;;;5013888;28;20643;-88
2023/04/14 09:03:21;;;;;;;1.20;0.90;;;5.90;99.90;;;;;;5036202;28;20213;-88
2023/04/14 09:05:53;;;;;;;1.37;0.70;;;5.90;99.90;;;;;;5038528;28;20677;-89
2023/04/14 09:08:25;;;;;;;0.97;0.70;;;5.80;99.90;;;;;;5021130;28;20300;-88
2023/04/14 09:10:57;;;;;;;1.00;0.83;;;5.70;99.90;;;;;;5018205;28;20570;-88
2023/04/14 09:13:30;;;;;;;2.93;0.90;;;5.60;99.90;;;;;;5017641;28;20244;-88
2023/04/14 09:16:03;;;;;;;2.83;1.17;;;5.50;99.90;;;;;;5014853;28;20205;-88
2023/04/14 09:18:35;;;;;;;1.90;0.80;;;5.40;99.90;;;;;;5013459;28;20404;-88
2023/04/14 09:21:09;;;;;;;3.23;0.87;;;5.30;99.90;;;;;;5005216;28;20292;-88
2023/04/14 09:24:00;;;;;;;1.57;0.80;;;5.30;99.90;;;;;;4996284;28;20815;-88
2023/04/14 09:26:32;;;;;;;3.30;1.10;;;5.30;99.90;;;;;;4998287;28;20222;-88
2023/04/14 09:29:03;;;;;;;2.17;0.90;;;5.20;99.90;;;;;;4993765;28;20273;-89
2023/04/14 09:31:36;;;;;;;1.00;0.90;;;5.10;99.90;;;;;;5000268;28;20221;-88
2023/04/14 09:34:17;;;;;;;1.00;0.90;;;5.00;99.90;;;;;;5015310;28;20397;-88
2023/04/14 09:37:03;;;;;;;1.67;0.80;;;5.00;99.90;;;;;;5014257;28;20209;-88
2023/04/14 09:39:36;;;;;;;1.63;0.80;;;4.90;99.90;;;;;;5001233;28;20238;-88
2023/04/14 09:42:06;;;;;;;2.63;0.93;;;4.80;99.90;;;;;;4996096;28;20210;-88
2023/04/14 09:44:55;;;;;;;1.33;0.83;;;4.50;99.90;;;;;;5012861;28;20210;-89
2023/04/14 09:47:29;;;;;;;0.90;0.73;;;4.40;99.90;;;;;;5012528;28;20217;-88
2023/04/14 09:50:02;;;;;;;2.17;0.90;;;4.40;99.90;;;;;;4995303;28;20594;-88
2023/04/14 09:52:40;;;;;;;1.00;0.90;;;4.40;99.90;;;;;;5012054;28;20260;-88
2023/04/14 09:55:14;;;;;;;1.47;0.93;;;4.40;99.90;;;;;;5018016;28;20217;-88
2023/04/14 09:57:48;;;;;;;1.93;1.00;;;4.40;99.90;;;;;;5015349;28;20256;-89
2023/04/14 10:00:21;;;;;;;1.80;0.80;;;4.40;99.90;;;;;;5014103;28;20241;-89
2023/04/14 10:02:57;;;;;;;1.00;0.80;;;4.30;99.90;;;;;;5006223;28;20206;-88
2023/04/14 10:05:31;;;;;;;2.40;0.80;;;4.20;99.90;;;;;;5046635;28;20239;-88
2023/04/14 10:08:04;;;;;;;1.23;0.90;;;4.20;99.90;;;;;;5030620;28;20236;-88
2023/04/14 10:10:35;;;;;;;0.83;0.73;;;4.20;99.90;;;;;;5018086;28;20205;-88
2023/04/14 10:13:06;;;;;;;1.13;1.00;;;4.20;99.90;;;;;;5017099;28;20578;-89
2023/04/14 10:15:37;;;;;;;2.90;1.10;;;4.10;99.90;;;;;;5017354;28;20245;-90
2023/04/14 10:18:10;;;;;;;1.83;0.87;;;4.10;99.90;;;;;;5016552;28;20209;-89
2023/04/14 10:20:42;;;;;;;0.97;0.73;;;4.10;99.90;;;;;;5017271;28;20303;-87
2023/04/14 10:23:14;;;;;;;1.53;1.10;;;4.10;99.90;;;;;;4998762;28;20218;-88
2023/04/14 10:25:46;;;;;;;2.57;0.97;;;4.00;99.90;;;;;;4997985;28;20229;-88
2023/04/14 10:28:18;;;;;;;1.23;1.00;;;4.00;99.90;;;;;;4996365;28;20211;-89
2023/04/14 10:30:51;;;;;;;1.80;0.90;;;3.90;99.90;;;;;;4997952;28;20253;-88
2023/04/14 10:33:25;;;;;;;1.13;1.00;;;3.90;99.90;;;;;;5014279;28;20202;-89
2023/04/14 10:36:00;;;;;;;1.07;0.97;;;3.80;99.90;;;;;;5016940;28;20280;-88
2023/04/14 10:38:43;;;;;;;1.27;0.90;;;3.80;99.90;;;;;;5018316;28;20243;-87
2023/04/14 10:41:14;;;;;;;1.47;1.07;;;3.80;99.90;;;;;;5019319;28;20260;-88
2023/04/14 10:43:46;;;;;;;1.13;0.80;;;3.80;99.90;;;;;;5016591;28;20255;-89
2023/04/14 10:46:17;;;;;;;2.07;1.03;;;3.80;99.90;;;;;;5016922;28;20236;-88
2023/04/14 10:48:52;;;;;;;1.73;1.33;;;3.70;99.90;;;;;;5016549;28;20249;-88
2023/04/14 10:51:36;;;;;;;2.67;1.00;;;3.70;99.90;;;;;;5009986;28;20272;-88
2023/04/14 10:54:18;;;;;;;1.30;1.17;;;3.70;99.90;;;;;;4996958;28;20210;-88
2023/04/14 10:57:11;;;;;;;2.13;1.17;;;3.70;99.90;;;;;;4996759;28;20218;-88
2023/04/14 10:59:43;;;;;;;1.53;1.20;;;3.70;99.90;;;;;;4995717;28;20234;-89
2023/04/14 11:02:25;;;;;;;2.83;1.43;;;3.70;99.90;;;;;;4995873;28;20376;-87
2023/04/14 11:05:04;;;;;;;1.73;1.20;;;3.70;99.90;;;;;;4997544;28;20289;-86
2023/04/14 11:07:44;;;;;;;1.53;1.40;;;3.60;99.90;;;;;;5013583;28;20671;-88
2023/04/14 11:10:31;;;;;;;2.33;1.40;;;3.60;99.90;;;;;;5014943;28;20209;-88
2023/04/14 11:13:07;;;;;;;1.83;1.57;;;3.60;99.90;;;;;;5003042;28;20722;-88
2023/04/14 11:15:46;;;;;;;2.00;1.00;;;3.60;99.90;;;;;;5011869;28;20214;-88
2023/04/14 11:18:21;;;;;;;1.90;0.80;;;3.60;99.90;;;;;;4996533;28;20646;-88
2023/04/14 11:21:03;;;;;;;1.20;0.63;;;3.50;99.90;;;;;;4997844;28;20237;-89
2023/04/14 11:23:34;;;;;;;1.73;0.87;;;3.50;99.90;;;;;;4996267;28;20214;-87
2023/04/14 11:26:08;;;;;;;2.37;0.83;;;3.40;99.90;;;;;;4996197;28;20206;-88
2023/04/14 11:28:41;;;;;;;0.77;0.70;;;3.40;99.90;;;;;;5006990;28;20198;-88
2023/04/14 11:31:17;;;;;;;1.33;0.90;;;3.40;99.90;;;;;;5015529;28;20209;-86
2023/04/14 11:33:52;;;;;;;2.00;0.90;;;3.30;99.90;;;;;;5014465;28;20266;-88
2023/04/14 11:36:26;;;;;;;1.20;1.07;;;3.30;99.90;;;;;;5013765;28;20268;-88
2023/04/14 11:38:59;;;;;;;0.73;0.73;;;3.30;99.90;;;;;;5014566;28;20771;-88
2023/04/14 11:41:31;;;;;;;0.97;0.90;;;3.30;99.90;;;;;;5016169;28;20247;-89
2023/04/14 11:44:03;;;;;;;1.83;1.00;;;3.30;99.90;;;;;;5016128;28;20190;-89
2023/04/14 11:46:34;;;;;;;1.60;0.90;;;3.30;99.90;;;;;;5016393;28;20292;-87
2023/04/14 11:49:06;;;;;;;2.00;0.90;;;3.30;99.90;;;;;;5002724;28;20202;-88
2023/04/14 11:51:39;;;;;;;1.93;0.90;;;3.20;99.90;;;;;;5018085;28;20232;-89
2023/04/14 11:54:13;;;;;;;2.20;1.00;;;3.20;99.90;;;;;;5036207;28;20190;-86
2023/04/14 11:56:45;;;;;;;1.53;1.00;;;3.10;99.90;;;;;;5033029;28;20198;-87
2023/04/14 11:59:16;;;;;;;2.57;1.00;;;3.10;99.90;;;;;;5014910;28;20221;-88
2023/04/14 12:01:51;;;;;;;1.30;0.93;;;3.10;99.90;;;;;;5015567;28;20601;-88
2023/04/14 12:04:23;;;;;;;2.60;0.80;;;3.00;99.90;;;;;;5016272;28;20263;-88
2023/04/14 12:06:56;;;;;;;2.00;1.10;;;3.00;99.90;;;;;;5014306;28;20715;-89
2023/04/14 12:09:32;;;;;;;1.00;0.90;;;3.00;99.90;;;;;;5014150;28;20685;-88
2023/04/14 12:12:11;;;;;;;0.80;0.80;;;3.00;99.90;;;;;;5032134;28;20219;-88
2023/04/14 12:14:48;;;;;;;1.13;0.90;;;3.00;99.90;;;;;;4994354;28;20211;-88
2023/04/14 12:17:20;;;;;;;1.63;1.30;;;3.00;99.90;;;;;;5014117;28;20216;-88
2023/04/14 12:19:51;;;;;;;1.57;1.33;;;3.00;99.90;;;;;;5014216;28;20309;-88
2023/04/14 12:22:29;;;;;;;2.67;1.60;;;2.90;99.90;;;;;;5014403;28;20324;-89
2023/04/14 12:25:03;;;;;;;1.47;1.17;;;2.90;99.90;;;;;;5014271;28;20201;-89
2023/04/14 12:27:35;;;;;;;1.40;1.30;;;2.90;99.90;;;;;;5015329;28;20217;-89
2023/04/14 12:30:08;;;;;;;2.40;1.60;;;2.90;99.90;;;;;;5014539;28;20213;-88
2023/04/14 12:32:42;;;;;;;4.13;1.73;;;2.90;99.90;;;;;;5014576;28;20637;-89
2023/04/14 12:35:14;;;;;;;2.00;1.60;;;2.90;99.90;;;;;;5013528;28;20224;-88
2023/04/14 12:37:51;;;;;;;5.37;1.70;;;2.90;99.90;;;;;;5008306;28;20202;-89
2023/04/14 12:40:44;;;;;;;3.00;1.67;;;2.80;99.90;;;;;;5010661;28;20441;-88
2023/04/14 12:43:17;;;;;;;3.73;1.93;;;2.80;99.90;;;;;;5017617;28;20272;-89
2023/04/14 12:45:49;;;;;;;2.13;1.70;;;2.80;99.90;;;;;;5014157;28;20214;-88
2023/04/14 12:48:21;;;;;;;1.87;1.73;;;2.80;99.90;;;;;;5013385;28;20233;-87
2023/04/14 12:51:07;;;;;;;3.70;2.13;;;2.70;99.90;;;;;;5014149;28;20210;-89
2023/04/14 12:53:44;;;;;;;2.83;1.87;;;2.70;99.90;;;;;;5013430;28;20633;-88
2023/04/14 12:56:16;;;;;;;2.50;1.97;;;2.70;99.90;;;;;;5014398;28;20216;-89
2023/04/14 12:58:49;;;;;;;3.13;2.30;;;2.60;99.90;;;;;;5011149;28;20208;-89
2023/04/14 13:01:22;;;;;;;3.90;2.40;;;2.60;99.90;;;;;;5014097;28;20233;-89
2023/04/14 13:03:55;;;;;;;3.47;2.23;;;2.50;99.90;;;;;;5014227;28;20213;-88
2023/04/14 13:06:26;;;;;;;2.10;1.90;;;2.50;99.90;;;;;;5013555;28;20217;-89
2023/04/14 13:09:00;;;;;;;2.03;1.83;;;2.50;99.90;;;;;;5002564;28;20213;-86
2023/04/14 13:11:31;;;;;;;3.43;2.00;;;2.40;99.90;;;;;;5008292;28;20660;-88
2023/04/14 13:14:03;;;;;;;2.77;1.93;;;2.40;99.90;;;;;;5014394;28;20220;-88
2023/04/14 13:16:35;;;;;;;2.73;1.90;;;2.40;99.90;;;;;;5012614;28;20209;-89
2023/04/14 13:19:07;;;;;;;2.50;2.03;;;2.40;99.90;;;;;;4993392;28;20202;-89
2023/04/14 13:21:39;;;;;;;2.60;2.17;;;2.40;99.90;;;;;;5007822;28;20225;-88
2023/04/14 13:24:13;;;;;;;2.17;1.90;;;2.30;99.90;;;;;;5014471;28;20245;-89
2023/04/14 13:26:44;;;;;;;2.00;1.80;;;2.40;99.90;;;;;;5017370;28;20737;-88
2023/04/14 13:29:16;;;;;;;2.30;2.00;;;2.40;99.90;;;;;;5017273;28;20255;-88
2023/04/14 13:31:47;;;;;;;1.60;1.50;;;2.40;99.90;;;;;;5017804;28;20213;-89